Time;durP1;ratioP1;P1;durP2;ratioP2;P2;SDS_P1;SDS_P2;PMS_P1;PMS_P2;Temp;Humidity;BMP_temperature;BMP_pressure;BME280_temperature;BME280_humidity;BME280_pressure;Samples;Min_cycle;Max_cycle;Signal;HPM_P1;HPM_P2
2023/06/19 00:01:37;;;;;;;3.33;2.95;;;;;;;30.58;33.35;100712.97;5050691;27;97030;-78
2023/06/19 00:04:04;;;;;;;3.40;3.10;;;;;;;30.58;33.65;100712.97;5053243;27;97257;-78
2023/06/19 00:06:31;;;;;;;2.83;2.63;;;;;;;30.57;33.45;100719.59;5054229;27;96752;-79
2023/06/19 00:08:57;;;;;;;3.13;2.90;;;;;;;30.58;33.67;100726.81;5054246;27;96860;-79
2023/06/19 00:11:24;;;;;;;3.17;2.90;;;;;;;30.58;33.61;100728.75;5054572;27;97296;-79
2023/06/19 00:13:50;;;;;;;3.17;2.88;;;;;;;30.59;33.56;100736.00;5054575;27;96706;-79
2023/06/19 00:16:17;;;;;;;3.40;3.10;;;;;;;30.59;33.28;100733.25;5055165;27;96943;-79
2023/06/19 00:18:45;;;;;;;3.20;2.90;;;;;;;30.56;33.54;100737.31;5054860;27;97056;-78
2023/06/19 00:21:11;;;;;;;3.55;3.25;;;;;;;30.58;33.54;100737.06;5053609;27;97908;-79
2023/06/19 00:23:38;;;;;;;3.00;2.80;;;;;;;30.56;33.45;100734.53;5038770;27;97061;-79
2023/06/19 00:26:06;;;;;;;3.30;3.00;;;;;;;30.58;33.46;100740.69;5044488;27;97589;-78
2023/06/19 00:28:38;;;;;;;2.90;2.70;;;;;;;30.56;33.35;100742.00;5038231;27;100441;-78
2023/06/19 00:31:06;;;;;;;2.75;2.55;;;;;;;30.57;33.68;100746.47;5053694;27;97354;-79
2023/06/19 00:33:33;;;;;;;3.20;2.90;;;;;;;30.56;33.40;100750.31;5029376;28;97113;-79
2023/06/19 00:36:01;;;;;;;3.13;2.83;;;;;;;30.56;33.58;100750.31;5055001;27;97264;-79
2023/06/19 00:38:27;;;;;;;3.05;2.75;;;;;;;30.56;33.58;100755.88;5056029;27;97732;-79
2023/06/19 00:40:54;;;;;;;3.13;2.92;;;;;;;30.55;33.58;100763.34;5037353;27;97439;-79
2023/06/19 00:43:21;;;;;;;3.28;2.97;;;;;;;30.56;33.50;100769.72;5038319;27;97236;-79
2023/06/19 00:45:48;;;;;;;2.88;2.67;;;;;;;30.55;33.66;100771.66;5052204;27;96983;-79
2023/06/19 00:48:15;;;;;;;3.10;2.80;;;;;;;30.56;33.43;100775.28;5049278;27;99320;-79
2023/06/19 00:50:41;;;;;;;2.63;2.42;;;;;;;30.55;33.72;100779.97;5054656;27;96934;-79
2023/06/19 00:53:08;;;;;;;3.13;2.80;;;;;;;30.55;33.57;100774.44;5051187;27;96859;-79
2023/06/19 00:55:36;;;;;;;3.20;2.90;;;;;;;30.55;33.60;100781.91;5039254;27;97213;-78
2023/06/19 00:58:03;;;;;;;3.15;2.90;;;;;;;30.56;33.66;100786.34;5043533;27;99578;-79
2023/06/19 01:00:29;;;;;;;3.22;2.92;;;;;;;30.55;33.50;100781.91;5050057;27;97443;-79
2023/06/19 01:02:57;;;;;;;3.25;3.00;;;;;;;30.55;33.46;100779.13;5055722;27;97094;-79
2023/06/19 01:05:24;;;;;;;3.30;3.00;;;;;;;30.55;33.69;100781.91;5057249;27;97467;-79
2023/06/19 01:08:09;;;;;;;3.00;2.70;;;;;;;30.55;33.47;100779.97;5041645;27;100440;-79
2023/06/19 01:10:43;;;;;;;3.00;2.80;;;;;;;30.54;33.56;100791.31;5057535;27;97256;-79
2023/06/19 01:13:30;;;;;;;2.88;2.67;;;;;;;30.54;33.58;100788.53;5054868;27;97181;-78
2023/06/19 01:15:58;;;;;;;2.97;2.65;;;;;;;30.52;33.62;100802.63;5057810;27;97032;-78
2023/06/19 01:18:27;;;;;;;3.05;2.80;;;;;;;30.52;33.76;100791.53;5041321;27;96841;-79
2023/06/19 01:20:54;;;;;;;2.97;2.67;;;;;;;30.52;33.57;100793.47;5057238;27;96852;-79
2023/06/19 01:23:20;;;;;;;3.35;3.05;;;;;;;30.52;33.54;100794.31;5036452;27;96875;-79
2023/06/19 01:25:47;;;;;;;2.78;2.58;;;;;;;30.52;33.62;100799.00;5048097;27;96865;-79
2023/06/19 01:28:14;;;;;;;3.03;2.72;;;;;;;30.52;33.83;100799.84;5053400;27;100844;-79
2023/06/19 01:30:42;;;;;;;3.28;2.65;;;;;;;30.53;33.63;100789.63;5055102;27;97372;-79
2023/06/19 01:33:15;;;;;;;3.08;2.78;;;;;;;30.53;33.70;100792.38;5053022;27;96824;-79
2023/06/19 01:35:43;;;;;;;2.88;2.67;;;;;;;30.52;33.80;100796.25;5053297;27;97138;-79
2023/06/19 01:38:10;;;;;;;2.85;2.65;;;;;;;30.52;33.46;100791.53;5051383;27;99706;-79
2023/06/19 01:40:37;;;;;;;2.88;2.67;;;;;;;30.52;33.45;100797.09;5052729;27;97160;-79
2023/06/19 01:43:06;;;;;;;3.22;2.90;;;;;;;30.52;33.67;100783.22;5049346;27;97405;-80
2023/06/19 01:45:33;;;;;;;2.85;2.65;;;;;;;30.51;33.60;100792.63;5053655;27;96978;-80
2023/06/19 01:48:00;;;;;;;3.50;3.20;;;;;;;30.52;33.59;100794.31;5054977;27;98145;-78
2023/06/19 01:50:26;;;;;;;2.97;2.67;;;;;;;30.50;33.46;100804.81;5052897;27;97088;-79
2023/06/19 01:52:53;;;;;;;2.88;2.58;;;;;;;30.52;33.51;100807.34;5034777;27;96934;-80
2023/06/19 01:55:20;;;;;;;3.10;2.90;;;;;;;30.52;33.69;100810.09;5031977;27;97980;-79
2023/06/19 01:57:47;;;;;;;3.03;2.72;;;;;;;30.52;33.68;100810.94;5048631;27;98159;-79
2023/06/19 02:00:13;;;;;;;3.17;2.80;;;;;;;30.51;33.64;100811.19;5036026;27;100052;-79
2023/06/19 02:02:41;;;;;;;3.17;2.97;;;;;;;30.51;33.56;100819.50;5036365;27;96736;-78
2023/06/19 02:05:07;;;;;;;3.10;2.80;;;;;;;30.51;33.52;100816.72;5052715;27;98663;-79
2023/06/19 02:07:34;;;;;;;2.90;2.70;;;;;;;30.50;33.75;100824.19;5053001;27;100858;-78
2023/06/19 02:10:01;;;;;;;2.95;2.75;;;;;;;30.51;33.77;100825.88;5053083;27;97894;-79
2023/06/19 02:12:27;;;;;;;2.67;2.47;;;;;;;30.50;33.47;100820.59;5036502;27;96876;-80
2023/06/19 02:14:54;;;;;;;2.70;2.50;;;;;;;30.50;33.68;100820.59;5053362;27;97235;-79
2023/06/19 02:17:21;;;;;;;3.40;2.90;;;;;;;30.51;33.68;100825.03;5052581;27;98121;-78
2023/06/19 02:19:47;;;;;;;2.60;2.40;;;;;;;30.49;33.51;100827.22;5051934;27;98309;-80
2023/06/19 02:22:14;;;;;;;2.83;2.63;;;;;;;30.50;33.51;100842.75;5040675;27;96798;-79
2023/06/19 02:24:40;;;;;;;2.75;2.53;;;;;;;30.49;33.43;100841.91;5053803;27;97482;-79
2023/06/19 02:27:07;;;;;;;2.80;2.60;;;;;;;30.49;33.65;100838.28;5053825;27;97253;-79
2023/06/19 02:29:34;;;;;;;2.88;2.63;;;;;;;30.49;33.65;100841.06;5053014;27;99025;-79
2023/06/19 02:32:02;;;;;;;2.65;2.45;;;;;;;30.49;33.70;100855.78;5052050;27;96723;-79
2023/06/19 02:34:29;;;;;;;2.95;2.70;;;;;;;30.49;33.53;100857.69;5039481;27;96686;-78
2023/06/19 02:36:55;;;;;;;2.80;2.60;;;;;;;30.48;33.49;100859.63;5051176;27;98485;-79
2023/06/19 02:39:22;;;;;;;2.50;2.30;;;;;;;30.48;33.58;100862.41;5054425;27;96699;-79
2023/06/19 02:41:49;;;;;;;2.95;2.75;;;;;;;30.48;33.60;100861.56;5052062;27;96944;-79
2023/06/19 02:44:16;;;;;;;2.58;2.38;;;;;;;30.48;33.53;100865.16;5053543;27;96855;-79
2023/06/19 02:46:43;;;;;;;2.70;2.50;;;;;;;30.48;33.44;100872.63;5050506;27;98036;-80
2023/06/19 02:49:09;;;;;;;3.03;2.72;;;;;;;30.48;33.82;100867.94;5052697;27;99220;-79
2023/06/19 02:51:36;;;;;;;2.60;2.40;;;;;;;30.49;33.58;100871.56;5052205;27;96938;-79
2023/06/19 02:54:06;;;;;;;2.80;2.60;;;;;;;30.48;33.57;100864.31;5033927;27;96928;-79
2023/06/19 02:56:33;;;;;;;2.83;2.63;;;;;;;30.48;33.69;100872.63;5049422;27;98083;-79
2023/06/19 02:58:59;;;;;;;2.67;2.47;;;;;;;30.47;33.74;100870.91;5053492;27;99782;-79
2023/06/19 03:01:28;;;;;;;2.88;2.58;;;;;;;30.47;33.95;100887.53;5039297;27;96741;-79
2023/06/19 03:03:55;;;;;;;2.40;2.20;;;;;;;30.46;33.73;100883.09;5056206;27;96928;-79
2023/06/19 03:06:22;;;;;;;2.70;2.50;;;;;;;30.47;33.56;100882.00;5056934;27;97532;-79
2023/06/19 03:08:48;;;;;;;2.60;2.40;;;;;;;30.46;33.72;100880.31;5056799;27;99240;-79
2023/06/19 03:11:15;;;;;;;2.85;2.38;;;;;;;30.46;33.88;100883.09;5057100;27;97416;-78
2023/06/19 03:13:45;;;;;;;2.58;2.38;;;;;;;30.47;33.60;100879.22;5039026;27;97110;-79
2023/06/19 03:16:12;;;;;;;2.55;2.35;;;;;;;30.45;33.78;100879.47;5052016;27;97583;-79
2023/06/19 03:18:39;;;;;;;2.75;2.55;;;;;;;30.45;33.51;100882.25;5017532;28;98534;-79
2023/06/19 03:21:05;;;;;;;2.40;2.20;;;;;;;30.45;33.82;100878.63;5034491;27;99319;-79
2023/06/19 03:23:32;;;;;;;2.70;2.50;;;;;;;30.45;33.60;100884.16;5056573;27;96892;-79
2023/06/19 03:25:59;;;;;;;2.50;2.22;;;;;;;30.45;33.66;100886.94;5053165;27;97444;-79
2023/06/19 03:28:26;;;;;;;2.42;2.22;;;;;;;30.44;33.58;100885.25;5038075;27;99227;-79
2023/06/19 03:30:53;;;;;;;3.00;2.70;;;;;;;30.44;33.65;100890.78;5055066;27;96662;-79
2023/06/19 03:33:22;;;;;;;2.60;2.40;;;;;;;30.45;33.76;100884.16;5055314;27;96785;-79
2023/06/19 03:35:49;;;;;;;2.72;2.53;;;;;;;30.43;33.56;100887.19;5036609;27;100788;-79
2023/06/19 03:38:33;;;;;;;2.58;2.38;;;;;;;30.42;33.89;100899.34;5053437;27;100065;-79
2023/06/19 03:41:00;;;;;;;2.40;2.20;;;;;;;30.42;33.83;100888.25;5038261;27;96554;-79
2023/06/19 03:43:27;;;;;;;2.63;2.42;;;;;;;30.43;33.74;100900.19;5054750;27;96921;-79
2023/06/19 03:45:54;;;;;;;2.72;2.53;;;;;;;30.42;33.71;100901.28;5036115;27;96771;-79
2023/06/19 03:48:21;;;;;;;2.50;2.30;;;;;;;30.42;33.65;100904.91;5033892;27;100223;-79
2023/06/19 03:50:47;;;;;;;2.50;2.30;;;;;;;30.42;33.73;100904.91;5053335;27;96947;-79
2023/06/19 03:53:14;;;;;;;2.63;2.42;;;;;;;30.42;33.62;100899.34;5054650;27;97285;-79
2023/06/19 03:55:41;;;;;;;2.75;2.55;;;;;;;30.42;33.72;100904.03;5038473;27;99332;-79
2023/06/19 03:58:07;;;;;;;2.92;2.22;;;;;;;30.42;33.76;100915.13;5056915;27;98797;-79
2023/06/19 04:00:34;;;;;;;2.58;2.38;;;;;;;30.41;33.77;100922.59;5058630;27;97200;-79
2023/06/19 04:03:01;;;;;;;2.53;2.30;;;;;;;30.42;33.87;100923.44;5042014;27;96839;-79
2023/06/19 04:05:28;;;;;;;2.67;2.47;;;;;;;30.42;33.61;100923.44;5040085;27;97839;-79
2023/06/19 04:07:55;;;;;;;2.30;2.10;;;;;;;30.41;33.71;100928.16;5056105;27;98539;-80
2023/06/19 04:10:21;;;;;;;2.30;2.10;;;;;;;30.41;33.77;100932.84;5040747;27;97123;-79
2023/06/19 04:12:48;;;;;;;2.38;2.17;;;;;;;30.41;33.89;100933.69;5054385;27;96821;-79
2023/06/19 04:15:15;;;;;;;2.40;2.20;;;;;;;30.41;33.78;100935.63;5057330;27;99347;-80
2023/06/19 04:17:41;;;;;;;2.40;2.20;;;;;;;30.41;33.75;100943.94;5052214;27;99680;-79
2023/06/19 04:20:10;;;;;;;2.47;2.28;;;;;;;30.40;33.75;100940.31;5059081;27;97033;-80
2023/06/19 04:22:39;;;;;;;2.30;2.05;;;;;;;30.42;33.74;100942.84;5057936;27;97057;-79
2023/06/19 04:25:12;;;;;;;2.30;2.10;;;;;;;30.40;34.00;100945.84;5056723;27;99420;-79
2023/06/19 04:27:39;;;;;;;2.70;2.50;;;;;;;30.41;33.72;100949.47;5040038;27;98835;-80
2023/06/19 04:30:06;;;;;;;2.30;2.10;;;;;;;30.40;33.72;100951.41;5058881;27;96892;-80
2023/06/19 04:32:34;;;;;;;2.33;2.13;;;;;;;30.40;33.88;100947.78;5055315;27;96764;-79
2023/06/19 04:35:02;;;;;;;2.20;2.00;;;;;;;30.39;33.83;100952.47;5057988;27;97155;-79
2023/06/19 04:37:28;;;;;;;2.45;2.25;;;;;;;30.39;33.91;100952.47;5054932;27;97511;-79
2023/06/19 04:39:56;;;;;;;2.00;1.90;;;;;;;30.39;33.88;100960.78;5055193;27;97148;-80
2023/06/19 04:42:22;;;;;;;2.45;2.08;;;;;;;30.39;34.00;100957.19;5055417;27;97191;-79
2023/06/19 04:44:49;;;;;;;2.60;2.40;;;;;;;30.38;33.80;100961.88;5037170;27;100600;-80
2023/06/19 04:47:20;;;;;;;2.40;2.20;;;;;;;30.40;33.79;100967.19;5058049;27;97035;-79
2023/06/19 04:49:46;;;;;;;2.30;2.10;;;;;;;30.38;33.83;100972.13;5052655;27;96683;-80
2023/06/19 04:52:13;;;;;;;2.42;2.22;;;;;;;30.39;33.81;100973.81;5055385;27;97019;-79
2023/06/19 04:54:40;;;;;;;2.30;2.10;;;;;;;30.39;33.81;100974.66;5045771;27;97904;-80
2023/06/19 04:57:06;;;;;;;3.13;2.22;;;;;;;30.39;33.55;100965.50;5047587;27;98022;-80
2023/06/19 04:59:33;;;;;;;2.17;1.98;;;;;;;30.39;33.85;100968.25;5052020;27;97474;-80
2023/06/19 05:02:00;;;;;;;2.30;2.10;;;;;;;30.39;33.84;100968.25;5040748;27;97474;-79
2023/06/19 05:04:26;;;;;;;2.20;2.08;;;;;;;30.38;33.90;100961.88;5058435;27;96773;-80
2023/06/19 05:06:53;;;;;;;2.35;1.90;;;;;;;30.39;33.56;100979.34;5056553;27;98161;-79
2023/06/19 05:09:19;;;;;;;2.13;2.03;;;;;;;30.39;33.75;100968.25;5040301;27;96916;-79
2023/06/19 05:11:46;;;;;;;2.45;2.05;;;;;;;30.39;33.96;100971.03;5057938;27;96777;-79
2023/06/19 05:14:14;;;;;;;2.78;2.58;;;;;;;30.38;33.83;100972.13;5057552;27;97784;-79
2023/06/19 05:16:40;;;;;;;2.55;2.35;;;;;;;30.37;33.85;100976.81;5057961;27;97947;-79
2023/06/19 05:19:07;;;;;;;2.28;2.08;;;;;;;30.38;33.75;100980.44;5055154;27;97200;-80
2023/06/19 05:21:34;;;;;;;2.17;1.98;;;;;;;30.38;33.95;100983.19;5059273;27;96944;-79
2023/06/19 05:24:01;;;;;;;2.00;1.90;;;;;;;30.38;33.78;100981.28;5055198;27;98087;-79
2023/06/19 05:26:28;;;;;;;2.30;2.10;;;;;;;30.37;33.76;100993.44;5057226;27;99615;-80
2023/06/19 05:28:54;;;;;;;2.03;1.80;;;;;;;30.36;33.73;100992.59;5059315;27;97047;-79
2023/06/19 05:31:21;;;;;;;2.10;1.90;;;;;;;30.36;33.74;100991.75;5054773;27;97360;-79
2023/06/19 05:33:48;;;;;;;1.98;1.88;;;;;;;30.36;33.80;100989.81;5053814;27;96969;-79
2023/06/19 05:36:14;;;;;;;2.40;2.20;;;;;;;30.38;34.00;100997.06;5055192;27;96788;-79
2023/06/19 05:38:41;;;;;;;2.08;1.88;;;;;;;30.36;33.61;101000.91;5058360;27;96917;-79
2023/06/19 05:41:07;;;;;;;2.08;1.95;;;;;;;30.36;33.72;101003.69;5059245;27;96963;-79
2023/06/19 05:43:34;;;;;;;2.40;1.88;;;;;;;30.36;33.65;101003.69;5056515;27;97464;-80
2023/06/19 05:46:02;;;;;;;2.00;1.80;;;;;;;30.37;33.69;101001.75;5057006;27;96715;-79
2023/06/19 05:48:28;;;;;;;2.47;2.08;;;;;;;30.36;33.83;101003.69;5046140;27;96742;-79
2023/06/19 05:50:55;;;;;;;2.03;1.88;;;;;;;30.36;33.86;101012.00;5036587;27;97217;-79
2023/06/19 05:53:22;;;;;;;2.33;1.75;;;;;;;30.36;33.69;101013.91;5050545;27;96665;-79
2023/06/19 05:55:48;;;;;;;2.00;1.80;;;;;;;30.35;33.89;101007.53;5055050;27;96821;-79
2023/06/19 05:58:15;;;;;;;1.98;1.85;;;;;;;30.36;33.89;101014.75;5053001;27;96762;-78
2023/06/19 06:00:41;;;;;;;1.88;1.70;;;;;;;30.36;33.78;101008.38;5054229;27;97165;-79
2023/06/19 06:03:08;;;;;;;1.92;1.80;;;;;;;30.35;33.81;101015.84;5042835;27;97745;-78
2023/06/19 06:05:36;;;;;;;2.10;1.90;;;;;;;30.35;34.03;101023.31;5054849;27;98021;-78
2023/06/19 06:08:03;;;;;;;2.47;2.17;;;;;;;30.35;33.73;101017.78;5049841;27;96851;-78
2023/06/19 06:10:30;;;;;;;2.00;1.90;;;;;;;30.35;33.81;101018.63;5044688;27;96993;-78
2023/06/19 06:12:56;;;;;;;2.60;1.80;;;;;;;30.35;33.53;101018.63;5051007;27;97173;-78
2023/06/19 06:15:23;;;;;;;2.20;2.00;;;;;;;30.35;34.01;101017.78;5033842;27;97667;-78
2023/06/19 06:17:49;;;;;;;2.10;1.90;;;;;;;30.36;33.79;101027.78;5036445;27;97197;-79
2023/06/19 06:20:16;;;;;;;1.70;1.60;;;;;;;30.35;33.73;101028.84;5060672;27;96926;-78
2023/06/19 06:22:43;;;;;;;1.83;1.73;;;;;;;30.35;33.57;101029.69;5032567;27;97095;-79
2023/06/19 06:25:10;;;;;;;1.90;1.70;;;;;;;30.35;33.63;101020.53;5023772;28;100818;-77
2023/06/19 06:27:39;;;;;;;2.00;1.80;;;;;;;30.35;33.85;101026.94;5043832;27;96558;-78
2023/06/19 06:30:06;;;;;;;1.85;1.75;;;;;;;30.35;33.93;101034.41;5054302;27;97159;-77
2023/06/19 06:32:33;;;;;;;2.10;1.90;;;;;;;30.35;33.85;101037.16;5039477;27;97088;-78
2023/06/19 06:35:03;;;;;;;1.83;1.70;;;;;;;30.36;33.87;101044.41;5049167;27;97342;-77
2023/06/19 06:37:30;;;;;;;1.58;1.48;;;;;;;30.36;33.69;101047.16;5049635;27;97278;-78
2023/06/19 06:39:57;;;;;;;2.13;1.63;;;;;;;30.35;33.61;101062.94;5054410;27;97109;-78
2023/06/19 06:42:23;;;;;;;1.70;1.60;;;;;;;30.35;33.62;101062.94;5037512;27;99330;-78
2023/06/19 06:44:50;;;;;;;1.75;1.50;;;;;;;30.36;33.76;101066.56;5043945;27;97265;-77
2023/06/19 06:47:17;;;;;;;1.60;1.50;;;;;;;30.36;33.67;101070.19;5042139;27;98304;-78
2023/06/19 06:49:43;;;;;;;1.70;1.60;;;;;;;30.36;33.92;101070.19;5031979;27;97073;-78
2023/06/19 06:52:10;;;;;;;2.22;1.90;;;;;;;30.36;33.65;101061.88;5049906;27;100872;-78
2023/06/19 06:54:36;;;;;;;1.67;1.58;;;;;;;30.38;33.92;101074.66;5053379;27;96959;-78
2023/06/19 06:57:05;;;;;;;1.73;1.63;;;;;;;30.38;33.47;101069.09;5057046;27;96735;-78
2023/06/19 06:59:31;;;;;;;2.05;1.85;;;;;;;30.38;33.52;101082.97;5054237;27;96852;-78
2023/06/19 07:01:58;;;;;;;1.98;1.88;;;;;;;30.38;33.78;101074.66;5052839;27;97205;-77
2023/06/19 07:04:25;;;;;;;2.05;1.85;;;;;;;30.38;33.85;101077.41;5044868;27;96733;-77
2023/06/19 07:06:52;;;;;;;1.60;1.50;;;;;;;30.38;33.80;101086.56;5048199;27;96686;-78
2023/06/19 07:09:18;;;;;;;2.08;1.75;;;;;;;30.38;33.88;101081.03;5045347;27;98644;-77
2023/06/19 07:11:45;;;;;;;2.15;1.60;;;;;;;30.38;33.80;101086.56;5048483;27;96892;-80
2023/06/19 07:14:11;;;;;;;1.73;1.63;;;;;;;30.39;33.80;101087.41;5038298;27;97470;-81
2023/06/19 07:16:38;;;;;;;2.10;1.90;;;;;;;30.39;33.80;101091.03;5047041;27;98186;-78
2023/06/19 07:19:05;;;;;;;2.03;1.80;;;;;;;30.39;33.89;101095.72;5029358;27;96991;-78
2023/06/19 07:21:31;;;;;;;1.73;1.63;;;;;;;30.38;33.76;101094.03;5053968;27;97681;-79
2023/06/19 07:23:58;;;;;;;1.92;1.73;;;;;;;30.39;33.75;101107.66;5052514;27;96650;-77
2023/06/19 07:26:25;;;;;;;1.83;1.58;;;;;;;30.39;33.88;101110.44;5052113;27;96790;-77
2023/06/19 07:28:52;;;;;;;1.95;1.80;;;;;;;30.40;33.71;101108.50;5041357;27;96885;-79
2023/06/19 07:31:19;;;;;;;1.55;1.45;;;;;;;30.39;33.91;101110.44;5046736;27;97052;-80
2023/06/19 07:33:45;;;;;;;2.10;1.60;;;;;;;30.41;33.68;101107.44;5045458;27;97246;-80
2023/06/19 07:36:13;;;;;;;2.22;1.92;;;;;;;30.39;33.94;101102.13;5055008;27;96826;-80
2023/06/19 07:38:42;;;;;;;1.70;1.60;;;;;;;30.41;33.88;101115.75;5053404;27;97192;-80
2023/06/19 07:41:09;;;;;;;1.70;1.60;;;;;;;30.41;33.61;101110.19;5058205;27;97065;-79
2023/06/19 07:43:37;;;;;;;1.58;1.48;;;;;;;30.41;33.84;101124.06;5053484;27;96728;-78
2023/06/19 07:46:04;;;;;;;2.38;1.60;;;;;;;30.42;34.08;101128.53;5054916;27;97314;-77
2023/06/19 07:48:31;;;;;;;1.58;1.48;;;;;;;30.42;33.97;101125.75;5054824;27;97283;-78
2023/06/19 07:50:57;;;;;;;1.83;1.70;;;;;;;30.42;33.96;101125.75;5054727;27;97711;-78
2023/06/19 07:53:24;;;;;;;2.10;1.70;;;;;;;30.41;33.82;101129.59;5051081;27;100626;-78
2023/06/19 07:55:50;;;;;;;1.40;1.25;;;;;;;30.42;33.82;101129.38;5054243;27;96929;-78
2023/06/19 07:58:18;;;;;;;1.92;1.60;;;;;;;30.42;33.83;101125.75;5055398;27;96705;-78
2023/06/19 08:00:44;;;;;;;2.00;1.80;;;;;;;30.43;33.89;101127.44;5056151;27;97883;-78
2023/06/19 08:03:11;;;;;;;1.73;1.60;;;;;;;30.43;33.73;101130.22;5057787;27;96837;-78
2023/06/19 08:05:38;;;;;;;1.90;1.45;;;;;;;30.43;33.88;101133.00;5059124;27;96894;-78
2023/06/19 08:08:04;;;;;;;1.65;1.55;;;;;;;30.43;33.83;101119.13;5041611;27;96857;-79
2023/06/19 08:10:31;;;;;;;2.15;1.88;;;;;;;30.45;33.73;101130.81;5053730;27;96962;-79
2023/06/19 08:12:58;;;;;;;1.77;1.67;;;;;;;30.44;33.88;101120.81;5055168;27;97158;-78
2023/06/19 08:15:25;;;;;;;1.80;1.70;;;;;;;30.45;33.82;101131.69;5055959;27;97026;-78
2023/06/19 08:17:51;;;;;;;2.20;1.90;;;;;;;30.44;33.86;101124.44;5056722;27;97017;-78
2023/06/19 08:20:19;;;;;;;2.15;1.90;;;;;;;30.45;33.76;101114.19;5058514;27;96726;-78
2023/06/19 08:22:46;;;;;;;2.03;1.80;;;;;;;30.45;33.71;101131.69;5058587;27;96787;-78
2023/06/19 08:25:12;;;;;;;2.20;1.80;;;;;;;30.45;34.03;101134.44;5050703;27;96709;-78
2023/06/19 08:27:39;;;;;;;1.80;1.70;;;;;;;30.45;33.84;101144.69;5073970;27;96794;-79
2023/06/19 08:30:06;;;;;;;2.08;1.90;;;;;;;30.46;34.06;101149.16;5061442;27;96659;-78
2023/06/19 08:32:34;;;;;;;2.17;1.98;;;;;;;30.45;34.27;101148.31;5051786;27;96841;-79
2023/06/19 08:35:01;;;;;;;1.75;1.65;;;;;;;30.45;34.04;101139.16;5053774;27;96868;-79
2023/06/19 08:37:28;;;;;;;1.98;1.77;;;;;;;30.46;34.10;101140.84;5064354;27;96697;-78
2023/06/19 08:39:59;;;;;;;1.92;1.83;;;;;;;30.46;34.08;101143.59;5048529;27;98509;-79
2023/06/19 08:42:26;;;;;;;1.85;1.67;;;;;;;30.46;33.90;101151.91;5048435;27;97826;-79
2023/06/19 08:44:53;;;;;;;3.78;2.33;;;;;;;30.46;34.23;101144.44;5044730;27;96682;-79
2023/06/19 08:47:20;;;;;;;3.13;2.10;;;;;;;30.46;34.12;101146.38;5045751;27;97090;-78
2023/06/19 08:49:46;;;;;;;2.67;2.47;;;;;;;30.47;34.04;101136.97;5047996;27;98109;-79
2023/06/19 08:52:13;;;;;;;2.60;1.88;;;;;;;30.47;34.29;101148.06;5048439;27;98266;-79
2023/06/19 08:54:43;;;;;;;2.92;2.58;;;;;;;30.47;34.02;101148.94;5034896;27;97170;-79
2023/06/19 08:57:12;;;;;;;2.58;2.38;;;;;;;30.48;34.34;101163.66;5039251;27;96845;-77
2023/06/19 08:59:39;;;;;;;3.20;2.33;;;;;;;30.47;34.21;101165.59;5037895;27;98480;-79
2023/06/19 09:02:06;;;;;;;2.60;2.38;;;;;;;30.47;34.13;101162.81;5050491;27;96718;-78
2023/06/19 09:04:33;;;;;;;2.60;2.40;;;;;;;30.48;34.17;101160.88;5030588;27;97004;-79
2023/06/19 09:07:02;;;;;;;2.83;2.58;;;;;;;30.48;34.09;101169.19;5047413;27;96742;-78
2023/06/19 09:09:46;;;;;;;2.70;2.50;;;;;;;30.48;34.05;101181.13;5049078;27;99587;-78
2023/06/19 09:12:14;;;;;;;2.65;2.45;;;;;;;30.48;34.11;101177.50;5056032;27;100496;-78
2023/06/19 09:14:45;;;;;;;3.22;2.90;;;;;;;30.48;34.36;101181.13;5051572;27;97052;-80
2023/06/19 09:17:20;;;;;;;2.60;2.40;;;;;;;30.49;34.32;101181.97;5050557;27;96659;-80
2023/06/19 09:19:50;;;;;;;3.05;2.75;;;;;;;30.48;34.15;101178.34;5062716;27;100013;-79
2023/06/19 09:22:20;;;;;;;3.25;2.80;;;;;;;30.49;34.38;101184.75;5053832;27;97154;-77
2023/06/19 09:24:47;;;;;;;3.25;2.92;;;;;;;30.49;34.38;101173.66;5042961;27;96660;-78
2023/06/19 09:27:18;;;;;;;3.05;2.78;;;;;;;30.48;34.32;101174.75;5054364;27;97187;-78
2023/06/19 09:29:49;;;;;;;2.60;2.40;;;;;;;30.49;34.16;101179.22;5016572;28;96969;-78
2023/06/19 09:32:21;;;;;;;3.45;2.63;;;;;;;30.49;34.32;101177.28;5046624;27;97840;-79
2023/06/19 09:34:52;;;;;;;3.63;3.33;;;;;;;30.49;34.32;101182.81;5046957;27;96915;-79
2023/06/19 09:37:24;;;;;;;3.10;2.80;;;;;;;30.50;34.10;101192.00;5049424;27;96922;-79
2023/06/19 09:39:57;;;;;;;3.50;3.20;;;;;;;30.49;34.38;101201.38;5049632;27;100944;-78
2023/06/19 09:42:34;;;;;;;3.42;2.88;;;;;;;30.50;34.38;101200.31;5053357;27;96950;-77
2023/06/19 09:45:06;;;;;;;2.92;2.60;;;;;;;30.49;34.32;101204.16;5046030;27;97156;-78
2023/06/19 09:47:41;;;;;;;3.40;3.10;;;;;;;30.49;34.46;101201.38;5052712;27;96655;-78
2023/06/19 09:50:12;;;;;;;3.60;3.30;;;;;;;30.48;34.42;101206.06;5043755;27;96868;-78
2023/06/19 09:52:40;;;;;;;3.30;3.00;;;;;;;30.49;34.21;101196.69;5051772;27;97341;-77
2023/06/19 09:55:12;;;;;;;3.90;3.13;;;;;;;30.49;34.48;101196.69;5026716;27;97180;-77
2023/06/19 09:57:41;;;;;;;3.58;3.28;;;;;;;30.48;34.54;101203.31;5047209;27;96808;-78
2023/06/19 10:00:12;;;;;;;3.50;3.20;;;;;;;30.49;34.31;101198.59;5051097;27;98114;-77
2023/06/19 10:02:44;;;;;;;3.30;3.00;;;;;;;30.50;34.44;101197.53;5039994;27;97236;-77
2023/06/19 10:05:13;;;;;;;4.10;3.15;;;;;;;30.50;34.21;101208.63;5032187;27;96731;-77
2023/06/19 10:07:43;;;;;;;3.60;3.13;;;;;;;30.50;34.29;101203.91;5014986;27;96686;-77
2023/06/19 10:10:21;;;;;;;3.72;3.22;;;;;;;30.50;34.21;101203.06;5049035;27;97610;-77
2023/06/19 10:12:49;;;;;;;3.63;3.30;;;;;;;30.50;34.20;101200.31;5045137;27;97523;-78
2023/06/19 10:15:29;;;;;;;3.78;3.42;;;;;;;30.51;34.18;101204.75;5050638;27;97394;-78
2023/06/19 10:18:03;;;;;;;3.80;3.40;;;;;;;30.50;34.38;101195.59;5041657;27;96958;-77
2023/06/19 10:20:32;;;;;;;3.42;2.85;;;;;;;30.49;34.32;101196.69;5041483;27;96983;-78
2023/06/19 10:23:03;;;;;;;4.15;3.13;;;;;;;30.52;34.33;101206.47;5041324;27;97197;-78
2023/06/19 10:25:33;;;;;;;4.32;3.45;;;;;;;30.50;34.33;101201.16;5036603;27;97102;-77
2023/06/19 10:28:01;;;;;;;3.72;3.13;;;;;;;30.50;34.36;101203.06;5050188;27;97140;-78
2023/06/19 10:30:29;;;;;;;5.50;3.13;;;;;;;30.50;34.60;101206.69;5042996;27;98108;-79
2023/06/19 10:32:57;;;;;;;3.70;3.40;;;;;;;30.51;34.32;101204.75;5041945;27;98408;-77
2023/06/19 10:35:24;;;;;;;3.40;3.10;;;;;;;30.50;34.47;101201.16;5038068;27;96687;-78
2023/06/19 10:37:51;;;;;;;4.10;3.30;;;;;;;30.50;34.64;101195.59;5046690;27;96725;-78
2023/06/19 10:40:18;;;;;;;4.25;3.58;;;;;;;30.50;34.21;101197.53;5044491;27;99412;-78
2023/06/19 10:42:45;;;;;;;3.55;3.25;;;;;;;30.51;34.25;101194.53;5048371;27;97140;-78
2023/06/19 10:45:16;;;;;;;3.80;3.40;;;;;;;30.52;34.35;101201.75;5048084;27;96903;-77
2023/06/19 10:47:44;;;;;;;3.88;3.40;;;;;;;30.52;34.15;101200.91;5040070;27;97077;-78
2023/06/19 10:50:13;;;;;;;4.35;3.35;;;;;;;30.52;34.37;101198.16;5050517;27;97358;-78
2023/06/19 10:52:44;;;;;;;3.70;3.40;;;;;;;30.52;34.21;101198.16;5052847;27;100371;-79
2023/06/19 10:55:12;;;;;;;4.30;3.20;;;;;;;30.53;34.47;101197.06;5047091;27;97233;-78
2023/06/19 10:57:44;;;;;;;3.60;3.28;;;;;;;30.52;34.17;101192.59;5048028;27;96989;-78
2023/06/19 11:00:14;;;;;;;3.65;3.33;;;;;;;30.53;34.24;101197.06;5039772;27;98019;-77
2023/06/19 11:02:43;;;;;;;4.18;3.50;;;;;;;30.51;34.16;101193.69;5037759;27;96989;-78
2023/06/19 11:05:11;;;;;;;3.53;3.22;;;;;;;30.52;34.35;101192.59;5038616;27;97134;-78
2023/06/19 11:07:38;;;;;;;4.93;3.10;;;;;;;30.53;34.35;101191.53;5038864;27;97123;-79
2023/06/19 11:10:06;;;;;;;3.45;3.15;;;;;;;30.52;34.14;101190.69;5051271;27;96700;-78
2023/06/19 11:12:35;;;;;;;3.28;2.97;;;;;;;30.53;34.15;101192.38;5020828;28;98497;-77
2023/06/19 11:15:04;;;;;;;3.83;3.42;;;;;;;30.53;34.32;101197.06;5043540;27;96858;-78
2023/06/19 11:17:31;;;;;;;3.92;3.30;;;;;;;30.53;34.38;101197.91;5061512;27;96819;-78
2023/06/19 11:19:59;;;;;;;4.05;3.75;;;;;;;30.52;33.98;101190.69;5047793;27;96681;-78
2023/06/19 11:22:40;;;;;;;3.20;2.90;;;;;;;30.54;34.24;101194.06;5054132;27;97795;-78
2023/06/19 11:25:08;;;;;;;3.45;3.15;;;;;;;30.52;34.13;101184.28;5037716;27;96651;-78
2023/06/19 11:27:39;;;;;;;4.35;3.33;;;;;;;30.53;33.81;101188.75;5050058;27;97539;-78